createdAt,value
2022-11-15T00:01:10.412Z,9.73
2022-11-15T00:03:37.514Z,9.73
2022-11-15T00:06:05.722Z,9.74
2022-11-15T00:08:33.728Z,9.73
2022-11-15T00:11:03.273Z,9.74
2022-11-15T00:13:31.760Z,9.73
2022-11-15T00:16:00.780Z,9.72
2022-11-15T00:18:29.173Z,9.73
2022-11-15T00:20:57.296Z,9.74
2022-11-15T00:23:24.705Z,9.71
2022-11-15T00:25:59.026Z,9.73
2022-11-15T00:28:27.105Z,9.74
2022-11-15T00:30:54.435Z,9.76
2022-11-15T00:33:22.488Z,9.75
2022-11-15T00:35:50.244Z,9.73
2022-11-15T00:38:18.283Z,9.75
2022-11-15T00:40:45.995Z,9.74
2022-11-15T00:43:13.329Z,9.72
2022-11-15T00:45:40.743Z,9.73
2022-11-15T00:48:08.943Z,9.72
2022-11-15T00:50:36.335Z,9.72
2022-11-15T00:53:04.296Z,9.70
2022-11-15T00:55:32.071Z,9.71
2022-11-15T00:57:59.356Z,9.70
2022-11-15T01:00:26.341Z,9.70
2022-11-15T01:02:53.740Z,9.70
2022-11-15T01:05:21.225Z,9.70
2022-11-15T01:07:48.178Z,9.70
2022-11-15T01:10:15.710Z,9.71
2022-11-15T01:12:42.822Z,9.72
2022-11-15T01:15:10.215Z,9.72
2022-11-15T01:17:37.339Z,9.71
2022-11-15T01:20:04.793Z,9.71
2022-11-15T01:22:32.257Z,9.71
2022-11-15T01:24:59.629Z,9.71
2022-11-15T01:27:27.066Z,9.67
2022-11-15T01:29:53.834Z,9.69
2022-11-15T01:32:21.236Z,9.69
2022-11-15T01:34:48.313Z,9.71
2022-11-15T01:37:15.712Z,9.70
2022-11-15T01:39:42.853Z,9.70
2022-11-15T01:42:16.444Z,9.70
2022-11-15T01:44:53.025Z,9.69
2022-11-15T01:47:27.890Z,9.69
2022-11-15T01:50:02.362Z,9.69
2022-11-15T01:52:32.439Z,9.71
2022-11-15T01:55:22.401Z,9.70
2022-11-15T01:57:54.669Z,9.69
2022-11-15T02:00:22.067Z,9.70
2022-11-15T02:02:49.196Z,9.69
2022-11-15T02:05:16.751Z,9.69
2022-11-15T02:07:44.024Z,9.70
2022-11-15T02:10:14.633Z,9.69
2022-11-15T02:12:42.526Z,9.69
2022-11-15T02:15:12.462Z,9.66
2022-11-15T02:18:27.645Z,9.66
2022-11-15T02:21:06.410Z,9.66
2022-11-15T02:23:33.420Z,9.68
2022-11-15T02:26:12.931Z,9.68
2022-11-15T02:28:46.613Z,9.68
2022-11-15T02:31:22.869Z,9.68
2022-11-15T02:34:05.574Z,9.69
2022-11-15T02:37:17.051Z,9.68
2022-11-15T02:40:04.885Z,9.68
2022-11-15T02:42:55.218Z,9.68
2022-11-15T02:45:30.742Z,9.67
2022-11-15T02:48:00.746Z,9.67
2022-11-15T02:50:30.779Z,9.67
2022-11-15T02:52:57.956Z,9.68
2022-11-15T02:55:36.968Z,9.67
2022-11-15T02:58:09.645Z,9.65
2022-11-15T03:00:48.618Z,9.65
2022-11-15T03:03:33.636Z,9.64
2022-11-15T03:06:23.448Z,9.63
2022-11-15T03:09:05.922Z,9.64
2022-11-15T03:11:42.628Z,9.63
2022-11-15T03:14:22.322Z,9.64
2022-11-15T03:17:14.341Z,9.63
2022-11-15T03:20:01.668Z,9.63
2022-11-15T03:22:31.405Z,9.61
2022-11-15T03:25:03.209Z,9.60
2022-11-15T03:27:36.624Z,9.59
2022-11-15T03:30:07.997Z,9.58
2022-11-15T03:32:48.626Z,9.58
2022-11-15T03:35:20.822Z,9.56
2022-11-15T03:38:09.863Z,9.57
2022-11-15T03:40:42.878Z,9.58
2022-11-15T03:43:27.611Z,9.56
2022-11-15T03:46:03.753Z,9.57
2022-11-15T03:48:46.313Z,9.58
2022-11-15T03:51:14.792Z,9.58
2022-11-15T03:53:42.635Z,9.56
2022-11-15T03:56:09.391Z,9.53
2022-11-15T03:58:36.799Z,9.53
2022-11-15T04:01:04.049Z,9.53
2022-11-15T04:03:31.553Z,9.54
2022-11-15T04:05:58.503Z,9.53
2022-11-15T04:08:25.924Z,9.52
2022-11-15T04:10:52.787Z,9.52
2022-11-15T04:13:19.546Z,9.55
2022-11-15T04:15:46.946Z,9.55
2022-11-15T04:18:14.085Z,9.53
2022-11-15T04:20:59.540Z,9.53
2022-11-15T04:23:45.298Z,9.54
2022-11-15T04:26:16.444Z,9.51
2022-11-15T04:29:01.726Z,9.51
2022-11-15T04:31:29.483Z,9.51
2022-11-15T04:33:56.870Z,9.52
2022-11-15T04:36:42.908Z,9.49
2022-11-15T04:39:10.063Z,9.50
2022-11-15T04:41:37.372Z,9.48
2022-11-15T04:44:04.497Z,9.49
2022-11-15T04:46:31.856Z,9.48
2022-11-15T04:48:59.547Z,9.47
2022-11-15T04:51:27.062Z,9.46
2022-11-15T04:53:53.862Z,9.45
2022-11-15T04:56:20.970Z,9.46
2022-11-15T04:58:50.991Z,9.47
2022-11-15T05:01:18.779Z,9.46
2022-11-15T05:04:05.416Z,9.46
2022-11-15T05:06:32.666Z,9.47
2022-11-15T05:08:59.688Z,9.44
2022-11-15T05:11:28.610Z,9.45
2022-11-15T05:13:56.332Z,9.45
2022-11-15T05:16:23.447Z,9.45
2022-11-15T05:18:54.995Z,9.44
2022-11-15T05:21:22.587Z,9.41
2022-11-15T05:23:50.131Z,9.39
2022-11-15T05:26:18.891Z,9.39
2022-11-15T05:28:46.375Z,9.38
2022-11-15T05:31:17.774Z,9.40
2022-11-15T05:33:45.469Z,9.39
2022-11-15T05:36:21.643Z,9.38
2022-11-15T05:38:50.295Z,9.37
2022-11-15T05:41:22.301Z,9.35
2022-11-15T05:43:51.069Z,9.36
2022-11-15T05:46:19.229Z,9.36
2022-11-15T05:48:50.612Z,9.37
2022-11-15T05:51:18.547Z,9.39
2022-11-15T05:53:46.605Z,9.37
2022-11-15T05:56:14.061Z,9.35
2022-11-15T05:58:40.955Z,9.36
2022-11-15T06:01:08.661Z,9.38
2022-11-15T06:03:35.436Z,9.37
2022-11-15T06:06:02.223Z,9.37
2022-11-15T06:08:29.724Z,9.39
2022-11-15T06:10:56.871Z,9.36
2022-11-15T06:13:23.615Z,9.35
2022-11-15T06:15:51.099Z,9.36
2022-11-15T06:18:17.840Z,9.35
2022-11-15T06:20:44.587Z,9.38
2022-11-15T06:23:12.417Z,9.35
2022-11-15T06:25:39.204Z,9.37
2022-11-15T06:28:06.316Z,9.36
2022-11-15T06:30:33.422Z,9.36
2022-11-15T06:33:05.435Z,9.36
2022-11-15T06:35:34.808Z,9.36
2022-11-15T06:38:07.983Z,9.37
2022-11-15T06:40:36.715Z,9.37
2022-11-15T06:43:05.198Z,9.36
2022-11-15T06:45:33.057Z,9.36
2022-11-15T06:48:00.352Z,9.37
2022-11-15T06:50:27.776Z,9.39
2022-11-15T06:52:55.996Z,9.38
2022-11-15T06:55:23.188Z,9.37
2022-11-15T06:57:52.114Z,9.37
2022-11-15T07:00:21.567Z,9.38
2022-11-15T07:02:48.896Z,9.39
2022-11-15T07:05:17.676Z,9.38
2022-11-15T07:07:44.465Z,9.38
2022-11-15T07:10:11.864Z,9.39
2022-11-15T07:12:38.963Z,9.37
2022-11-15T07:15:07.203Z,9.41
2022-11-15T07:17:33.964Z,9.38
2022-11-15T07:20:01.143Z,9.38
2022-11-15T07:22:28.323Z,9.36
2022-11-15T07:24:55.512Z,9.37
2022-11-15T07:27:22.871Z,9.38
2022-11-15T07:29:50.231Z,9.39
2022-11-15T07:32:18.381Z,9.39
2022-11-15T07:34:47.228Z,9.40
2022-11-15T07:37:14.682Z,9.39
2022-11-15T07:39:41.795Z,9.41
2022-11-15T07:42:27.795Z,9.43
2022-11-15T07:44:55.107Z,9.47
2022-11-15T07:47:22.321Z,9.45
2022-11-15T07:49:49.495Z,9.46
2022-11-15T07:52:16.934Z,9.45
2022-11-15T07:54:43.678Z,9.46
2022-11-15T07:57:11.061Z,9.48
2022-11-15T07:59:38.477Z,9.49
2022-11-15T08:02:05.329Z,9.50
2022-11-15T08:04:32.842Z,9.52
2022-11-15T08:06:59.936Z,9.52
2022-11-15T08:09:27.452Z,9.56
2022-11-15T08:11:54.222Z,9.55
2022-11-15T08:14:23.086Z,9.59
2022-11-15T08:16:50.585Z,9.62
2022-11-15T08:19:17.734Z,9.66
2022-11-15T08:21:44.901Z,9.68
2022-11-15T08:24:12.466Z,9.71
2022-11-15T08:26:39.416Z,9.68
2022-11-15T08:29:06.767Z,9.72
2022-11-15T08:31:34.437Z,9.73
2022-11-15T08:34:02.345Z,9.77
2022-11-15T08:36:34.831Z,9.78
2022-11-15T08:39:12.629Z,9.79
2022-11-15T08:41:40.068Z,9.81
2022-11-15T08:44:07.262Z,9.82
2022-11-15T08:46:34.359Z,9.87
2022-11-15T08:49:01.109Z,9.86
2022-11-15T08:51:28.876Z,9.90
2022-11-15T08:53:56.001Z,9.95
2022-11-15T08:56:23.483Z,10.00
2022-11-15T08:58:50.575Z,10.03
2022-11-15T09:01:21.983Z,10.08
2022-11-15T09:03:49.437Z,10.13
2022-11-15T09:06:16.347Z,10.14
2022-11-15T09:08:48.236Z,10.19
2022-11-15T09:11:17.567Z,10.22
2022-11-15T09:13:45.057Z,10.25
2022-11-15T09:16:13.712Z,10.24
2022-11-15T09:18:40.864Z,10.29
2022-11-15T09:21:08.286Z,10.31
2022-11-15T09:23:35.408Z,10.33
2022-11-15T09:26:03.966Z,10.36
2022-11-15T09:28:32.461Z,10.39
2022-11-15T09:31:05.435Z,10.40
2022-11-15T09:33:33.352Z,10.42
2022-11-15T09:36:03.251Z,10.44
2022-11-15T09:38:30.812Z,10.46
2022-11-15T09:41:13.474Z,10.44
2022-11-15T09:44:25.132Z,10.47
2022-11-15T09:47:02.961Z,10.46
2022-11-15T09:49:32.221Z,10.47
2022-11-15T09:51:59.900Z,10.49
2022-11-15T09:57:21.672Z,10.51
2022-11-15T10:00:04.020Z,10.53
2022-11-15T10:02:52.180Z,10.53
2022-11-15T10:05:25.174Z,10.56
2022-11-15T10:08:20.263Z,10.60
2022-11-15T10:11:00.571Z,10.63
2022-11-15T10:13:42.794Z,10.65
2022-11-15T10:16:49.432Z,10.68
2022-11-15T10:19:31.859Z,10.69
2022-11-15T10:22:15.698Z,10.74
2022-11-15T10:24:46.588Z,10.76
2022-11-15T10:27:16.988Z,10.80
2022-11-15T10:29:52.845Z,10.82
2022-11-15T10:32:22.590Z,10.84
2022-11-15T10:34:50.836Z,10.89
2022-11-15T10:37:32.576Z,10.90
2022-11-15T10:40:05.655Z,10.94
2022-11-15T10:42:32.729Z,10.95
2022-11-15T10:44:59.806Z,10.98
2022-11-15T10:47:37.976Z,11.00
2022-11-15T10:50:27.064Z,11.02
2022-11-15T10:52:54.837Z,11.04
2022-11-15T10:55:27.671Z,11.05
2022-11-15T10:58:00.148Z,11.07
2022-11-15T11:00:32.252Z,11.12
2022-11-15T11:03:00.868Z,11.13
2022-11-15T11:05:42.148Z,11.16
2022-11-15T11:08:12.414Z,11.17
2022-11-15T11:11:01.465Z,11.21
2022-11-15T11:13:30.193Z,11.25
2022-11-15T11:16:03.711Z,11.28
2022-11-15T11:18:56.610Z,11.31
2022-11-15T11:21:58.950Z,11.34
2022-11-15T11:24:49.308Z,11.35
2022-11-15T11:27:44.079Z,11.37
2022-11-15T11:30:49.833Z,11.38
2022-11-15T11:33:29.485Z,11.38
2022-11-15T11:36:34.144Z,11.41
2022-11-15T11:39:22.547Z,11.41
2022-11-15T11:42:17.186Z,11.43
2022-11-15T11:45:13.430Z,11.44
2022-11-15T11:47:47.356Z,11.45
2022-11-15T11:50:24.654Z,11.46
2022-11-15T11:53:03.877Z,11.48
2022-11-15T11:55:48.982Z,11.48
2022-11-15T11:58:22.172Z,11.49
2022-11-15T12:01:27.262Z,11.51
2022-11-15T12:04:03.611Z,11.52
2022-11-15T12:06:41.882Z,11.54
2022-11-15T12:09:33.413Z,11.56
2022-11-15T12:12:19.122Z,11.52
2022-11-15T12:14:57.406Z,11.59
2022-11-15T12:17:27.729Z,11.62
2022-11-15T12:19:58.827Z,11.63
2022-11-15T12:22:42.787Z,11.65
2022-11-15T12:25:20.618Z,11.68
2022-11-15T12:28:14.945Z,11.72
2022-11-15T12:30:55.070Z,11.73
2022-11-15T12:33:43.718Z,11.77
2022-11-15T12:36:33.588Z,11.78
2022-11-15T12:39:04.106Z,11.80
2022-11-15T12:41:39.312Z,11.81
2022-11-15T12:44:13.099Z,11.85
2022-11-15T12:46:40.097Z,11.88
2022-11-15T12:49:29.077Z,11.88
2022-11-15T12:51:59.212Z,11.90
2022-11-15T12:54:27.876Z,11.93
2022-11-15T12:57:03.981Z,11.94
2022-11-15T12:59:50.063Z,11.96
2022-11-15T13:02:29.017Z,11.96
2022-11-15T13:05:21.892Z,11.98
2022-11-15T13:07:49.245Z,11.96
2022-11-15T13:10:31.144Z,11.95
2022-11-15T13:13:01.319Z,11.94
2022-11-15T13:15:31.135Z,11.90
2022-11-15T13:17:59.053Z,11.91
2022-11-15T13:20:32.012Z,11.91
2022-11-15T13:23:08.878Z,11.90
2022-11-15T13:25:49.230Z,11.89
2022-11-15T13:28:16.576Z,11.86
2022-11-15T13:30:54.256Z,11.83
2022-11-15T13:33:41.879Z,11.82
2022-11-15T13:36:27.369Z,11.82
2022-11-15T13:39:15.586Z,11.81
2022-11-15T13:41:49.333Z,11.79
2022-11-15T13:44:29.506Z,11.77
2022-11-15T13:47:14.154Z,11.76
2022-11-15T13:49:42.384Z,11.74
2022-11-15T13:52:15.542Z,11.72
2022-11-15T13:54:52.188Z,11.70
2022-11-15T13:57:41.992Z,11.68
2022-11-15T14:00:25.964Z,11.67
2022-11-15T14:02:53.862Z,11.66
2022-11-15T14:05:25.790Z,11.64
2022-11-15T14:08:00.130Z,11.60
2022-11-15T14:10:37.348Z,11.61
2022-11-15T14:13:11.766Z,11.61
2022-11-15T14:15:40.831Z,11.58
2022-11-15T14:18:08.271Z,11.59
2022-11-15T14:20:40.210Z,11.56
2022-11-15T14:23:25.961Z,11.54
2022-11-15T14:25:58.179Z,11.53
2022-11-15T14:28:25.520Z,11.54
2022-11-15T14:30:55.127Z,11.50
2022-11-15T14:33:24.053Z,11.51
2022-11-15T14:35:53.387Z,11.51
2022-11-15T14:38:20.660Z,11.51
2022-11-15T14:40:47.876Z,11.49
2022-11-15T14:43:15.674Z,11.48
2022-11-15T14:45:43.439Z,11.47
2022-11-15T14:48:10.671Z,11.46
2022-11-15T14:50:38.258Z,11.44
2022-11-15T14:53:06.541Z,11.41
2022-11-15T14:55:37.174Z,11.40
2022-11-15T14:58:05.969Z,11.40
2022-11-15T15:00:35.218Z,11.38
2022-11-15T15:03:04.068Z,11.38
2022-11-15T15:05:32.531Z,11.35
2022-11-15T15:08:00.564Z,11.35
2022-11-15T15:10:40.025Z,11.33
2022-11-15T15:13:31.812Z,11.30
2022-11-15T15:15:58.911Z,11.29
2022-11-15T15:18:25.991Z,11.30
2022-11-15T15:21:08.488Z,11.27
2022-11-15T15:23:36.665Z,11.27
2022-11-15T15:26:03.935Z,11.24
2022-11-15T15:28:34.592Z,11.24
2022-11-15T15:31:03.217Z,11.23
2022-11-15T15:33:30.349Z,11.23
2022-11-15T15:35:57.237Z,11.19
2022-11-15T15:38:24.729Z,11.20
2022-11-15T15:40:51.926Z,11.20
2022-11-15T15:43:18.843Z,11.13
2022-11-15T15:45:46.419Z,11.14
2022-11-15T15:48:17.785Z,11.14
2022-11-15T15:50:45.705Z,11.16
2022-11-15T15:53:14.041Z,11.16
2022-11-15T15:55:41.311Z,11.15
2022-11-15T15:58:09.353Z,11.12
2022-11-15T16:00:37.238Z,11.11
2022-11-15T16:03:04.282Z,11.12
2022-11-15T16:05:31.503Z,11.11
2022-11-15T16:07:59.105Z,11.11
2022-11-15T16:10:29.851Z,11.12
2022-11-15T16:12:58.689Z,11.07
2022-11-15T16:15:28.904Z,11.10
2022-11-15T16:17:57.975Z,11.11
2022-11-15T16:20:35.801Z,11.08
2022-11-15T16:23:09.165Z,11.08
2022-11-15T16:25:57.406Z,11.03
2022-11-15T16:28:28.632Z,11.06
2022-11-15T16:31:11.349Z,11.06
2022-11-15T16:33:39.595Z,11.06
2022-11-15T16:36:14.027Z,11.04
2022-11-15T16:38:41.165Z,11.04
2022-11-15T16:41:08.467Z,11.04
2022-11-15T16:43:35.565Z,11.04
2022-11-15T16:46:13.823Z,11.02
2022-11-15T16:48:40.706Z,11.02
2022-11-15T16:51:07.910Z,11.01
2022-11-15T16:53:35.064Z,11.02
2022-11-15T16:56:02.810Z,11.01
2022-11-15T16:58:30.499Z,11.00
2022-11-15T17:00:57.935Z,10.98
2022-11-15T17:03:25.877Z,10.99
2022-11-15T17:05:53.686Z,10.98
2022-11-15T17:08:22.142Z,11.00
2022-11-15T17:10:49.565Z,10.98
2022-11-15T17:13:16.763Z,10.96
2022-11-15T17:15:44.218Z,10.98
2022-11-15T17:18:13.258Z,10.98
2022-11-15T17:20:41.161Z,10.98
2022-11-15T17:23:14.608Z,11.00
2022-11-15T17:25:42.676Z,11.00
2022-11-15T17:28:11.176Z,10.98
2022-11-15T17:30:42.271Z,10.98
2022-11-15T17:33:09.443Z,10.97
2022-11-15T17:35:36.247Z,10.97
2022-11-15T17:38:03.869Z,10.94
2022-11-15T17:40:31.512Z,10.94
2022-11-15T17:43:01.607Z,10.95
2022-11-15T17:45:29.274Z,10.94
2022-11-15T17:47:56.451Z,10.95
2022-11-15T17:50:23.570Z,10.94
2022-11-15T17:52:50.738Z,10.94
2022-11-15T17:55:18.169Z,10.94
2022-11-15T17:57:45.625Z,10.93
2022-11-15T18:00:13.480Z,10.95
2022-11-15T18:02:40.297Z,10.94
2022-11-15T18:05:07.831Z,10.96
2022-11-15T18:07:35.095Z,10.94
2022-11-15T18:10:02.254Z,10.92
2022-11-15T18:12:29.626Z,10.90
2022-11-15T18:14:57.297Z,10.92
2022-11-15T18:17:24.621Z,10.94
2022-11-15T18:19:52.167Z,10.91
2022-11-15T18:22:20.884Z,10.93
2022-11-15T18:24:48.338Z,10.92
2022-11-15T18:27:15.861Z,10.90
2022-11-15T18:29:45.274Z,10.91
2022-11-15T18:32:18.188Z,10.89
2022-11-15T18:34:46.284Z,10.89
2022-11-15T18:37:13.598Z,10.90
2022-11-15T18:39:41.329Z,10.90
2022-11-15T18:42:08.507Z,10.91
2022-11-15T18:44:35.703Z,10.88
2022-11-15T18:47:03.325Z,10.89
2022-11-15T18:49:30.676Z,10.89
2022-11-15T18:51:58.276Z,10.90
2022-11-15T18:54:31.068Z,10.89
2022-11-15T18:56:59.597Z,10.88
2022-11-15T18:59:28.162Z,10.85
2022-11-15T19:01:56.177Z,10.87
2022-11-15T19:04:24.112Z,10.85
2022-11-15T19:06:53.892Z,10.84
2022-11-15T19:09:21.126Z,10.84
2022-11-15T19:11:51.951Z,10.85
2022-11-15T19:14:19.615Z,10.83
2022-11-15T19:16:55.576Z,10.86
2022-11-15T19:19:25.089Z,10.86
2022-11-15T19:21:53.537Z,10.86
2022-11-15T19:24:26.756Z,10.86
2022-11-15T19:26:55.547Z,10.83
2022-11-15T19:29:23.114Z,10.84
2022-11-15T19:31:50.459Z,10.85
2022-11-15T19:34:18.298Z,10.83
2022-11-15T19:36:46.637Z,10.85
2022-11-15T19:39:15.356Z,10.84
2022-11-15T19:41:44.597Z,10.83
2022-11-15T19:44:13.018Z,10.80
2022-11-15T19:46:41.102Z,10.82
2022-11-15T19:49:11.471Z,10.83
2022-11-15T19:51:39.866Z,10.78
2022-11-15T19:54:09.083Z,10.78
2022-11-15T19:56:37.762Z,10.78
2022-11-15T19:59:05.822Z,10.81
2022-11-15T20:01:38.353Z,10.80
2022-11-15T20:04:06.120Z,10.80
2022-11-15T20:06:42.873Z,10.81
2022-11-15T20:09:14.904Z,10.76
2022-11-15T20:11:43.110Z,10.79
2022-11-15T20:14:12.108Z,10.82
2022-11-15T20:16:40.194Z,10.79
2022-11-15T20:19:08.904Z,10.80
2022-11-15T20:21:36.433Z,10.74
2022-11-15T20:24:05.110Z,10.75
2022-11-15T20:26:32.721Z,10.78
2022-11-15T20:29:02.339Z,10.80
2022-11-15T20:31:30.865Z,10.79
2022-11-15T20:33:59.402Z,10.78
2022-11-15T20:36:26.507Z,10.73
2022-11-15T20:38:58.642Z,10.76
2022-11-15T20:41:27.633Z,10.70
2022-11-15T20:43:55.366Z,10.74
2022-11-15T20:46:22.938Z,10.76
2022-11-15T20:48:50.867Z,10.77
2022-11-15T20:51:19.721Z,10.75
2022-11-15T20:53:47.859Z,10.77
2022-11-15T20:56:20.829Z,10.68
2022-11-15T20:58:50.357Z,10.75
2022-11-15T21:01:24.077Z,10.75
2022-11-15T21:03:53.129Z,10.77
2022-11-15T21:06:21.802Z,10.73
2022-11-15T21:09:09.966Z,10.72
2022-11-15T21:11:57.351Z,10.72
2022-11-15T21:14:24.644Z,10.75
2022-11-15T21:16:52.375Z,10.75
2022-11-15T21:19:22.753Z,10.74
2022-11-15T21:21:54.626Z,10.74
2022-11-15T21:24:21.825Z,10.69
2022-11-15T21:26:48.604Z,10.67
2022-11-15T21:29:17.642Z,10.68
2022-11-15T21:31:46.205Z,10.68
2022-11-15T21:34:14.080Z,10.70
2022-11-15T21:36:41.546Z,10.70
2022-11-15T21:39:08.806Z,10.68
2022-11-15T21:41:35.983Z,10.72
2022-11-15T21:44:04.916Z,10.74
2022-11-15T21:46:32.328Z,10.74
2022-11-15T21:48:59.468Z,10.73
2022-11-15T21:51:26.863Z,10.73
2022-11-15T21:53:57.709Z,10.74
2022-11-15T21:56:26.707Z,10.74
2022-11-15T21:58:54.320Z,10.74
2022-11-15T22:01:42.384Z,10.73
2022-11-15T22:04:10.160Z,10.73
2022-11-15T22:06:38.157Z,10.73
2022-11-15T22:09:06.751Z,10.72
2022-11-15T22:11:33.956Z,10.71
2022-11-15T22:14:00.881Z,10.71
2022-11-15T22:16:28.355Z,10.67
2022-11-15T22:18:55.180Z,10.67
2022-11-15T22:21:22.329Z,10.71
2022-11-15T22:23:49.629Z,10.70
2022-11-15T22:26:23.197Z,10.70
2022-11-15T22:28:51.894Z,10.71
2022-11-15T22:31:19.271Z,10.70
2022-11-15T22:33:46.983Z,10.72
2022-11-15T22:36:14.166Z,10.70
2022-11-15T22:38:41.419Z,10.63
2022-11-15T22:41:08.508Z,10.64
2022-11-15T22:43:36.149Z,10.62
2022-11-15T22:46:04.712Z,10.68
2022-11-15T22:48:39.164Z,10.66
2022-11-15T22:51:07.893Z,10.70
2022-11-15T22:53:35.028Z,10.69
2022-11-15T22:56:04.045Z,10.65
2022-11-15T22:58:33.392Z,10.65
2022-11-15T23:01:03.515Z,10.63
2022-11-15T23:03:31.350Z,10.64
2022-11-15T23:06:06.879Z,10.67
2022-11-15T23:08:34.648Z,10.69
2022-11-15T23:11:21.811Z,10.66
2022-11-15T23:13:52.293Z,10.62
2022-11-15T23:16:22.378Z,10.61
2022-11-15T23:19:12.003Z,10.65
2022-11-15T23:22:17.464Z,10.67
2022-11-15T23:25:05.115Z,10.65
2022-11-15T23:27:32.278Z,10.58
2022-11-15T23:30:18.093Z,10.62
2022-11-15T23:33:03.777Z,10.63
2022-11-15T23:35:31.187Z,10.62
2022-11-15T23:37:57.972Z,10.62
2022-11-15T23:40:24.932Z,10.64
2022-11-15T23:42:52.393Z,10.64
2022-11-15T23:45:19.191Z,10.65
2022-11-15T23:47:46.263Z,10.67
2022-11-15T23:50:13.342Z,10.67
2022-11-15T23:52:40.426Z,10.67
2022-11-15T23:55:07.845Z,10.68
2022-11-15T23:57:35.292Z,10.66
